메인 페이지
METAR-TAF:

METAR-TAF

공항 :

Huntsville Municipal Airport

Huntsville, 텍사스, 미국

위도: 30-44-38N, 경도: 095-35-10W, 고도: 111m

현재 날씨관측

예보는 20분 전, 14:53시(UTC)에 발표되었습니다.
동북동9kt
온도 27°C
습도 79%
기압 1020 hPa
시정: 16.1km
고도 1600ft 상공 구름 많음
고도 2100ft 상공 흐림

METAR: KUTS 201453Z AUTO 07009KT 10SM BKN016 OVC021 27/23 A3013 RMK AO2 SLP198 T02670233 53022

시각: 10:13 (15:13 UTC)

예보

예보는 3 시간 53분 전, 11:20시(UTC)에 발표되었습니다.
예보 대상 시간: 20일 12시부터 21일 12시까지 (UTC)
동북동6kt
시정: 10km
고도 1500ft 상공 구름 많음
고도 2500ft 상공 구름 많음
20일 1500시부터 (UTC)
7kt
시정: 10km
고도 2500ft 상공 구름 보통
고도 4500ft 상공 구름 많음
21일 0200시부터 (UTC)
3kt
시정: 10km
고도 4500ft 상공 구름 보통

TAF: KUTS 201120Z 2012/2112 06006KT P6SM BKN015 BKN025 FM201500 09007KT P6SM SCT025 BKN045 FM210200 10003KT P6SM SCT045

4,000개 이상의 공항 관측 자료 및 예보 (METAR 및 TAF 보고).

지도상에서 검색 가능한 기상관측소가 노란 점과 빨간 점으로 표시되어 있습니다.

기상관측소 명을 보려면 표시 위로 마우스를 이동하세요.

날씨 관측과 예보를 보려면 클릭하세요.

지도 변경 : 확대하려면 엑스 표시가 있는 녹색 버튼, 축소하려면 빼기 표시가 있는 녹색 버튼, 다음 페이지의 지도를 보려면 녹색 화살표를 클릭하세요.


METAR-TAF: